Time;durP1;ratioP1;P1;durP2;ratioP2;P2;SDS_P1;SDS_P2;PMS_P1;PMS_P2;Temp;Humidity;BMP_temperature;BMP_pressure;BME280_temperature;BME280_humidity;BME280_pressure;Samples;Min_cycle;Max_cycle;Signal;HPM_P1;HPM_P2
2023/09/04 00:01:36;;;;;;;;;;;;;;;25.33;45.59;102931.63;5062242;28;20048;-71
2023/09/04 00:04:03;;;;;;;;;;;;;;;25.32;45.74;102931.78;5059462;28;20029;-71
2023/09/04 00:06:29;;;;;;;;;;;;;;;25.34;45.45;102932.47;5060922;28;19999;-71
2023/09/04 00:08:57;;;;;;;;;;;;;;;25.31;45.71;102933.59;5053672;28;19952;-71
2023/09/04 00:11:24;;;;;;;;;;;;;;;25.32;45.56;102937.97;5057826;28;19958;-71
2023/09/04 00:13:50;;;;;;;;;;;;;;;25.32;45.53;102937.13;5059156;28;19954;-71
2023/09/04 00:16:15;;;;;;;;;;;;;;;25.32;45.59;102942.47;5054770;28;19948;-71
2023/09/04 00:18:41;;;;;;;;;;;;;;;25.30;45.56;102939.94;5061035;28;19946;-71
2023/09/04 00:21:07;;;;;;;;;;;;;;;25.30;45.59;102937.25;5055233;28;19998;-71
2023/09/04 00:23:32;;;;;;;;;;;;;;;25.31;45.43;102936.25;5056151;28;20034;-71
2023/09/04 00:25:57;;;;;;;;;;;;;;;25.28;45.55;102937.44;5057532;28;20053;-71
2023/09/04 00:28:23;;;;;;;;;;;;;;;25.30;45.32;102934.59;5055098;28;19947;-71
2023/09/04 00:30:48;;;;;;;;;;;;;;;25.29;45.48;102932.94;5060301;28;19954;-70
2023/09/04 00:33:14;;;;;;;;;;;;;;;25.27;45.63;102938.44;5055065;28;19948;-71
2023/09/04 00:35:39;;;;;;;;;;;;;;;25.27;45.32;102924.25;5057665;28;19939;-71
2023/09/04 00:38:05;;;;;;;;;;;;;;;25.29;45.39;102928.44;5061904;28;20739;-69
2023/09/04 00:40:30;;;;;;;;;;;;;;;25.28;45.51;102925.94;5055688;28;20015;-69
2023/09/04 00:42:56;;;;;;;;;;;;;;;25.29;45.34;102927.59;5056474;28;19942;-71
2023/09/04 00:45:21;;;;;;;;;;;;;;;25.28;45.54;102926.75;5058970;28;19974;-71
2023/09/04 00:47:47;;;;;;;;;;;;;;;25.27;45.62;102922.44;5059199;28;19980;-71
2023/09/04 00:50:17;;;;;;;;;;;;;;;25.25;45.41;102924.44;5058417;28;20067;-71
2023/09/04 00:52:43;;;;;;;;;;;;;;;25.28;45.22;102928.59;5068747;28;19949;-70
2023/09/04 00:55:09;;;;;;;;;;;;;;;25.26;45.67;102919.94;5055952;28;20000;-71
2023/09/04 00:57:35;;;;;;;;;;;;;;;25.27;45.45;102916.25;5058472;28;19945;-71
2023/09/04 01:00:14;;;;;;;;;;;;;;;25.25;45.38;102923.59;5058102;28;19941;-71
2023/09/04 01:02:40;;;;;;;;;;;;;;;25.09;45.32;102899.59;5085695;27;19949;-70
2023/09/04 01:05:06;;;;;;;;;;;;;;;25.25;45.35;102919.09;5064382;28;19937;-71
2023/09/04 01:07:32;;;;;;;;;;;;;;;25.26;45.32;102912.75;5059279;28;20036;-71
2023/09/04 01:09:58;;;;;;;;;;;;;;;25.25;45.47;102915.59;5064779;28;19943;-71
2023/09/04 01:12:26;;;;;;;;;;;;;;;25.26;45.52;102909.28;5063003;28;19976;-71
2023/09/04 01:14:54;;;;;;;;;;;;;;;25.24;45.51;102920.09;5061240;28;19945;-71
2023/09/04 01:17:19;;;;;;;;;;;;;;;25.25;45.66;102923.59;5077558;28;19995;-71
2023/09/04 01:19:45;;;;;;;;;;;;;;;25.23;45.61;102921.09;5063975;28;19987;-71
2023/09/04 01:22:11;;;;;;;;;;;;;;;25.23;45.34;102921.09;5061674;28;20121;-71
2023/09/04 01:24:36;;;;;;;;;;;;;;;25.22;45.47;102919.44;5051805;28;21190;-71
2023/09/04 01:27:05;;;;;;;;;;;;;;;25.24;45.29;102925.44;5062303;28;20075;-71
2023/09/04 01:29:34;;;;;;;;;;;;;;;25.23;45.28;102914.94;5063949;28;19948;-70
2023/09/04 01:32:03;;;;;;;;;;;;;;;25.25;45.53;102921.75;5054272;28;20355;-71
2023/09/04 01:34:37;;;;;;;;;;;;;;;25.25;45.24;102910.25;5088367;27;19951;-71
2023/09/04 01:37:03;;;;;;;;;;;;;;;25.25;45.32;102907.59;5052382;28;20017;-71
2023/09/04 01:39:29;;;;;;;;;;;;;;;25.22;45.62;102900.78;5057361;28;20982;-71
2023/09/04 01:41:55;;;;;;;;;;;;;;;25.21;45.37;102896.44;5085808;27;19965;-71
2023/09/04 01:44:20;;;;;;;;;;;;;;;25.23;45.29;102898.94;5060162;28;20300;-71
2023/09/04 01:46:45;;;;;;;;;;;;;;;25.21;45.38;102911.59;5056827;28;19956;-71
2023/09/04 01:49:11;;;;;;;;;;;;;;;25.20;45.31;102901.94;5058137;28;19947;-71
2023/09/04 01:51:36;;;;;;;;;;;;;;;25.22;45.46;102903.44;5058787;28;19959;-71
2023/09/04 01:54:02;;;;;;;;;;;;;;;25.22;45.39;102898.09;5058000;28;19943;-71
2023/09/04 01:56:27;;;;;;;;;;;;;;;25.20;45.31;102888.59;5053279;28;20371;-71
2023/09/04 01:58:52;;;;;;;;;;;;;;;25.19;45.36;102886.94;5055823;28;19945;-71
2023/09/04 02:01:18;;;;;;;;;;;;;;;25.21;45.41;102887.59;5059218;28;20021;-71
2023/09/04 02:03:46;;;;;;;;;;;;;;;25.20;45.54;102880.63;5061490;28;19938;-71
2023/09/04 02:06:12;;;;;;;;;;;;;;;25.20;45.50;102884.13;5056872;28;19943;-71
2023/09/04 02:08:38;;;;;;;;;;;;;;;25.19;45.25;102882.44;5060840;28;19959;-71
2023/09/04 02:11:04;;;;;;;;;;;;;;;25.20;45.10;102892.09;5060500;28;20019;-71
2023/09/04 02:13:29;;;;;;;;;;;;;;;25.20;45.19;102884.13;5065125;28;19974;-71
2023/09/04 02:15:55;;;;;;;;;;;;;;;25.19;45.41;102881.63;5057724;28;20086;-71
2023/09/04 02:18:20;;;;;;;;;;;;;;;25.19;45.17;102884.28;5052573;28;19985;-71
2023/09/04 02:20:46;;;;;;;;;;;;;;;25.17;45.38;102883.63;5055094;28;20060;-71
2023/09/04 02:23:12;;;;;;;;;;;;;;;25.19;45.39;102885.09;5057674;28;19952;-71
2023/09/04 02:25:37;;;;;;;;;;;;;;;25.20;45.52;102889.44;5061069;28;19978;-71
2023/09/04 02:28:03;;;;;;;;;;;;;;;25.20;45.22;102883.28;5058057;28;19954;-71
2023/09/04 02:30:29;;;;;;;;;;;;;;;25.18;45.17;102878.13;5056013;28;20431;-71
2023/09/04 02:32:58;;;;;;;;;;;;;;;25.16;45.33;102882.78;5063388;28;20686;-71
2023/09/04 02:35:24;;;;;;;;;;;;;;;25.15;45.42;102883.78;5055741;28;20474;-71
2023/09/04 02:37:49;;;;;;;;;;;;;;;25.17;45.38;102878.28;5056443;28;19972;-70
2023/09/04 02:40:14;;;;;;;;;;;;;;;25.15;45.09;102885.63;5057899;28;20109;-71
2023/09/04 02:42:40;;;;;;;;;;;;;;;25.17;45.34;102878.28;5089617;28;19948;-71
2023/09/04 02:45:06;;;;;;;;;;;;;;;25.15;45.30;102888.28;5056055;28;20640;-71
2023/09/04 02:47:31;;;;;;;;;;;;;;;25.17;45.15;102878.28;5048900;28;20396;-71
2023/09/04 02:49:57;;;;;;;;;;;;;;;25.16;45.32;102892.63;5055320;28;20068;-71
2023/09/04 02:52:22;;;;;;;;;;;;;;;25.15;45.35;102878.44;5062516;28;20462;-71
2023/09/04 02:54:48;;;;;;;;;;;;;;;25.13;45.32;102877.75;5062084;28;19994;-71
2023/09/04 02:57:13;;;;;;;;;;;;;;;25.16;45.23;102877.44;5061371;28;19957;-71
2023/09/04 02:59:39;;;;;;;;;;;;;;;25.14;45.27;102866.13;5065390;28;19949;-71
2023/09/04 03:02:04;;;;;;;;;;;;;;;25.15;45.34;102869.63;5067306;28;19998;-71
2023/09/04 03:04:29;;;;;;;;;;;;;;;25.14;45.09;102868.78;5063252;28;20523;-71
2023/09/04 03:06:55;;;;;;;;;;;;;;;25.15;45.53;102865.13;5070273;28;19967;-71
2023/09/04 03:09:20;;;;;;;;;;;;;;;25.14;45.31;102867.97;5058616;28;19993;-71
2023/09/04 03:11:46;;;;;;;;;;;;;;;25.13;45.26;102866.25;5070221;28;19950;-71
2023/09/04 03:14:11;;;;;;;;;;;;;;;25.13;45.17;102874.25;5055879;28;20070;-71
2023/09/04 03:16:37;;;;;;;;;;;;;;;25.13;45.17;102866.25;5068622;28;20480;-71
2023/09/04 03:19:03;;;;;;;;;;;;;;;25.14;45.19;102865.28;5065162;28;20035;-71
2023/09/04 03:21:31;;;;;;;;;;;;;;;25.13;45.25;102874.25;5060598;28;19962;-71
2023/09/04 03:23:57;;;;;;;;;;;;;;;25.12;45.39;102869.94;5067917;28;20534;-71
2023/09/04 03:26:22;;;;;;;;;;;;;;;25.10;45.27;102870.09;5064487;28;20034;-72
2023/09/04 03:28:47;;;;;;;;;;;;;;;25.10;45.20;102870.09;5064338;28;19947;-70
2023/09/04 03:31:15;;;;;;;;;;;;;;;25.11;45.30;102869.09;5057636;28;19952;-71
2023/09/04 03:33:42;;;;;;;;;;;;;;;25.08;45.39;102869.44;5088278;27;20041;-71
2023/09/04 03:36:12;;;;;;;;;;;;;;;25.08;45.23;102877.44;5057721;28;19952;-71
2023/09/04 03:38:38;;;;;;;;;;;;;;;25.08;45.29;102874.75;5058863;28;19982;-71
2023/09/04 03:41:03;;;;;;;;;;;;;;;25.11;45.19;102876.25;5063219;28;20066;-71
2023/09/04 03:43:29;;;;;;;;;;;;;;;25.08;45.35;102879.25;5068471;28;19941;-71
2023/09/04 03:45:54;;;;;;;;;;;;;;;25.08;45.36;102873.94;5065129;28;19953;-71
2023/09/04 03:48:20;;;;;;;;;;;;;;;25.06;45.18;102871.44;5060644;28;19946;-71
2023/09/04 03:50:45;;;;;;;;;;;;;;;25.08;45.12;102869.44;5057585;28;19978;-71
2023/09/04 03:53:11;;;;;;;;;;;;;;;25.07;45.08;102873.09;5065235;28;19946;-70
2023/09/04 03:55:36;;;;;;;;;;;;;;;25.07;45.20;102867.75;5055681;28;19987;-70
2023/09/04 03:58:03;;;;;;;;;;;;;;;25.08;45.14;102869.44;5058574;28;20004;-70
2023/09/04 04:00:30;;;;;;;;;;;;;;;25.09;45.07;102872.94;5058232;28;20335;-70
2023/09/04 04:02:56;;;;;;;;;;;;;;;25.08;45.09;102866.75;5056849;28;19955;-71
2023/09/04 04:05:23;;;;;;;;;;;;;;;25.06;44.96;102862.59;5063092;28;19937;-70
2023/09/04 04:07:48;;;;;;;;;;;;;;;25.08;44.98;102863.28;5056724;28;19941;-70
2023/09/04 04:10:14;;;;;;;;;;;;;;;25.05;45.10;102872.44;5059486;28;20436;-70
2023/09/04 04:12:39;;;;;;;;;;;;;;;25.05;45.07;102880.44;5058570;28;19954;-70
2023/09/04 04:15:06;;;;;;;;;;;;;;;25.06;45.23;102871.44;5058186;28;20068;-70
2023/09/04 04:17:32;;;;;;;;;;;;;;;25.06;45.26;102875.94;5062687;28;19947;-70
2023/09/04 04:19:57;;;;;;;;;;;;;;;25.06;44.94;102876.75;5060893;28;19944;-70
2023/09/04 04:22:23;;;;;;;;;;;;;;;25.04;45.00;102878.75;5086384;27;20344;-70
2023/09/04 04:24:49;;;;;;;;;;;;;;;24.97;44.92;102870.56;5058743;28;20042;-70
2023/09/04 04:27:17;;;;;;;;;;;;;;;25.06;45.05;102870.59;5060655;28;19954;-70
2023/09/04 04:29:43;;;;;;;;;;;;;;;25.06;45.31;102866.09;5057866;28;19952;-70
2023/09/04 04:32:08;;;;;;;;;;;;;;;25.03;45.00;102870.94;5058142;28;19949;-70
2023/09/04 04:34:34;;;;;;;;;;;;;;;25.04;45.19;102864.59;5075880;28;20353;-70
2023/09/04 04:37:00;;;;;;;;;;;;;;;25.03;45.08;102868.28;5091622;27;20608;-70
2023/09/04 04:39:27;;;;;;;;;;;;;;;25.03;45.03;102877.09;5088320;27;19942;-70
2023/09/04 04:41:53;;;;;;;;;;;;;;;25.01;45.04;102868.44;5064408;28;19960;-70
2023/09/04 04:44:18;;;;;;;;;;;;;;;25.03;44.95;102870.94;5060008;28;20303;-70
2023/09/04 04:46:46;;;;;;;;;;;;;;;25.02;44.98;102869.28;5060474;28;19968;-70
2023/09/04 04:49:11;;;;;;;;;;;;;;;25.03;44.97;102869.09;5057514;28;20596;-70
2023/09/04 04:51:37;;;;;;;;;;;;;;;25.02;44.94;102867.44;5057625;28;19977;-70
2023/09/04 04:54:03;;;;;;;;;;;;;;;25.02;44.83;102871.94;5094519;27;19944;-70
2023/09/04 04:56:29;;;;;;;;;;;;;;;24.99;45.05;102865.94;5059638;28;19954;-70
2023/09/04 04:58:54;;;;;;;;;;;;;;;25.04;44.94;102868.09;5056918;28;19943;-70
2023/09/04 05:01:20;;;;;;;;;;;;;;;25.01;45.04;102863.09;5063651;28;19962;-70
2023/09/04 05:03:45;;;;;;;;;;;;;;;25.03;44.94;102865.59;5067260;28;19948;-70
2023/09/04 05:06:10;;;;;;;;;;;;;;;25.03;45.02;102862.94;5054500;28;19947;-70
2023/09/04 05:08:36;;;;;;;;;;;;;;;25.02;44.74;102862.09;5069093;28;19952;-70
2023/09/04 05:11:03;;;;;;;;;;;;;;;25.00;44.90;102858.78;5090707;27;19983;-70
2023/09/04 05:13:29;;;;;;;;;;;;;;;24.99;44.97;102860.59;5065035;28;19944;-70
2023/09/04 05:15:55;;;;;;;;;;;;;;;25.02;44.91;102862.09;5045851;28;20017;-70
2023/09/04 05:18:21;;;;;;;;;;;;;;;24.98;45.02;102860.75;5039936;28;19951;-70
2023/09/04 05:20:46;;;;;;;;;;;;;;;24.99;44.98;102871.28;5084966;27;20478;-70
2023/09/04 05:23:11;;;;;;;;;;;;;;;24.97;44.90;102870.56;5061443;28;19948;-69
2023/09/04 05:25:37;;;;;;;;;;;;;;;24.96;44.95;102862.75;5060217;28;19990;-70
2023/09/04 05:28:03;;;;;;;;;;;;;;;24.98;44.95;102866.06;5062079;28;19944;-68
2023/09/04 05:30:28;;;;;;;;;;;;;;;24.97;45.00;102862.56;5058129;28;19940;-70
2023/09/04 05:32:53;;;;;;;;;;;;;;;24.97;44.86;102861.75;5060710;28;19950;-70
2023/09/04 05:35:19;;;;;;;;;;;;;;;24.97;44.98;102862.56;5048014;28;20435;-70
2023/09/04 05:37:44;;;;;;;;;;;;;;;24.98;44.83;102871.41;5064450;28;19960;-70
2023/09/04 05:40:10;;;;;;;;;;;;;;;24.77;45.06;102831.06;5067319;28;19956;-71
2023/09/04 05:42:35;;;;;;;;;;;;;;;24.97;44.74;102859.09;5065337;28;20098;-70
2023/09/04 05:45:01;;;;;;;;;;;;;;;24.97;44.69;102867.06;5060013;28;19982;-70
2023/09/04 05:47:26;;;;;;;;;;;;;;;24.98;44.66;102860.75;5057835;28;19977;-70
2023/09/04 05:49:52;;;;;;;;;;;;;;;24.97;44.91;102861.75;5056564;28;20002;-70
2023/09/04 05:52:17;;;;;;;;;;;;;;;24.94;44.82;102864.72;5056645;28;19939;-70
2023/09/04 05:54:43;;;;;;;;;;;;;;;24.95;44.80;102863.72;5058141;28;20000;-70
2023/09/04 05:57:08;;;;;;;;;;;;;;;24.96;44.95;102866.25;5057659;28;19950;-70
2023/09/04 05:59:33;;;;;;;;;;;;;;;24.96;44.86;102860.06;5060066;28;20025;-70
2023/09/04 06:01:59;;;;;;;;;;;;;;;24.94;44.78;102860.22;5056605;28;20010;-70
2023/09/04 06:04:24;;;;;;;;;;;;;;;24.94;44.71;102868.22;5058431;28;19940;-71
2023/09/04 06:06:49;;;;;;;;;;;;;;;24.95;44.95;102864.53;5061632;28;19982;-68
2023/09/04 06:09:15;;;;;;;;;;;;;;;24.94;44.79;102862.88;5060601;28;20070;-70
2023/09/04 06:11:41;;;;;;;;;;;;;;;24.97;44.67;102861.75;5060756;28;20034;-70
2023/09/04 06:14:06;;;;;;;;;;;;;;;24.94;44.89;102865.53;5059348;28;20299;-70
2023/09/04 06:16:32;;;;;;;;;;;;;;;24.95;44.78;102853.06;5056327;28;19988;-70
2023/09/04 06:18:58;;;;;;;;;;;;;;;24.96;44.92;102852.09;5060958;28;19946;-70
2023/09/04 06:21:23;;;;;;;;;;;;;;;24.95;44.71;102847.72;5056325;28;20007;-70
2023/09/04 06:23:49;;;;;;;;;;;;;;;24.78;44.68;102820.25;5058698;28;20062;-70
2023/09/04 06:26:14;;;;;;;;;;;;;;;24.96;44.88;102855.59;5072354;28;19946;-70
2023/09/04 06:28:40;;;;;;;;;;;;;;;24.96;44.83;102857.41;5054995;28;19952;-70
2023/09/04 06:31:05;;;;;;;;;;;;;;;24.96;44.80;102852.09;5053163;28;19953;-70
2023/09/04 06:33:33;;;;;;;;;;;;;;;24.96;44.85;102854.75;5052426;28;19990;-70
2023/09/04 06:35:59;;;;;;;;;;;;;;;24.95;44.88;102856.56;5057040;28;20391;-71
2023/09/04 06:38:25;;;;;;;;;;;;;;;24.94;44.67;102868.22;5058533;28;19941;-72
2023/09/04 06:40:57;;;;;;;;;;;;;;;24.95;44.75;102866.38;5058610;28;20200;-70
2023/09/04 06:43:23;;;;;;;;;;;;;;;24.96;44.89;102870.75;5058222;28;20906;-70
2023/09/04 06:45:49;;;;;;;;;;;;;;;25.00;44.80;102872.94;5057217;28;20431;-70
2023/09/04 06:48:14;;;;;;;;;;;;;;;24.99;44.85;102865.94;5057059;28;20046;-70
2023/09/04 06:50:39;;;;;;;;;;;;;;;25.01;44.57;102868.44;5050849;28;20554;-70
2023/09/04 06:53:05;;;;;;;;;;;;;;;25.02;44.81;102874.59;5055678;28;19943;-69
2023/09/04 06:55:30;;;;;;;;;;;;;;;25.03;44.76;102870.94;5058869;28;19991;-69
2023/09/04 06:57:56;;;;;;;;;;;;;;;25.06;44.64;102867.94;5052169;28;19941;-69
2023/09/04 07:00:21;;;;;;;;;;;;;;;25.05;44.69;102872.44;5055153;28;20713;-69
2023/09/04 07:02:47;;;;;;;;;;;;;;;25.08;44.73;102872.09;5056162;28;19935;-69
2023/09/04 07:05:12;;;;;;;;;;;;;;;25.09;44.66;102875.59;5054684;28;19947;-69
2023/09/04 07:07:37;;;;;;;;;;;;;;;25.09;44.80;102880.94;5051318;28;19946;-69
2023/09/04 07:10:04;;;;;;;;;;;;;;;25.09;44.66;102873.75;5061268;28;19945;-69
2023/09/04 07:12:30;;;;;;;;;;;;;;;25.09;44.73;102878.25;5052728;28;19978;-69
2023/09/04 07:14:55;;;;;;;;;;;;;;;25.08;44.85;102871.25;5058833;28;20402;-69
2023/09/04 07:17:20;;;;;;;;;;;;;;;25.13;44.86;102880.41;5064330;28;19954;-69
2023/09/04 07:19:46;;;;;;;;;;;;;;;25.15;44.70;102866.94;5055180;28;19994;-69
2023/09/04 07:22:11;;;;;;;;;;;;;;;25.17;44.69;102857.78;5060816;28;20055;-69
2023/09/04 07:24:36;;;;;;;;;;;;;;;25.17;44.90;102870.28;5060776;28;19972;-69
2023/09/04 07:27:02;;;;;;;;;;;;;;;25.16;44.74;102869.44;5064140;28;19947;-69
2023/09/04 07:29:28;;;;;;;;;;;;;;;25.17;44.97;102872.94;5057439;28;20518;-69
2023/09/04 07:31:54;;;;;;;;;;;;;;;25.17;45.08;102871.13;5057628;28;20039;-68
2023/09/04 07:34:19;;;;;;;;;;;;;;;25.19;45.02;102860.28;5054385;28;19949;-69
2023/09/04 07:36:44;;;;;;;;;;;;;;;25.20;44.80;102875.28;5066824;28;20395;-69
2023/09/04 07:39:10;;;;;;;;;;;;;;;25.20;44.98;102872.63;5063886;28;20042;-69
2023/09/04 07:41:35;;;;;;;;;;;;;;;25.23;45.12;102864.28;5064980;28;19954;-69
2023/09/04 07:44:00;;;;;;;;;;;;;;;25.24;45.04;102869.44;5060361;28;19951;-69
2023/09/04 07:46:26;;;;;;;;;;;;;;;25.27;45.15;102870.94;5060299;28;20043;-69
2023/09/04 07:48:51;;;;;;;;;;;;;;;25.27;45.04;102870.94;5065143;28;20032;-69
2023/09/04 07:51:19;;;;;;;;;;;;;;;25.26;44.98;102870.09;5062293;28;19968;-69
2023/09/04 07:53:44;;;;;;;;;;;;;;;25.30;45.00;102873.25;5065661;28;20018;-69
2023/09/04 07:56:10;;;;;;;;;;;;;;;25.31;45.18;102869.59;5059985;28;19950;-67
2023/09/04 07:58:35;;;;;;;;;;;;;;;25.33;45.22;102877.47;5058289;28;19944;-69
2023/09/04 08:01:01;;;;;;;;;;;;;;;25.33;45.23;102874.78;5061608;28;20006;-69
2023/09/04 08:03:27;;;;;;;;;;;;;;;25.33;45.04;102872.94;5060235;28;19947;-69
2023/09/04 08:05:52;;;;;;;;;;;;;;;25.35;44.94;102872.78;5058388;28;19973;-69
2023/09/04 08:08:18;;;;;;;;;;;;;;;25.36;45.06;102874.44;5058111;28;19956;-69
2023/09/04 08:10:45;;;;;;;;;;;;;;;25.39;45.01;102871.44;5057603;28;19953;-69
2023/09/04 08:13:11;;;;;;;;;;;;;;;25.39;45.10;102864.28;5059969;28;19939;-69
2023/09/04 08:15:37;;;;;;;;;;;;;;;25.38;45.02;102867.09;5052162;28;20028;-70
2023/09/04 08:18:02;;;;;;;;;;;;;;;25.37;45.11;102862.78;5058550;28;19945;-69
2023/09/04 08:20:28;;;;;;;;;;;;;;;25.39;45.29;102861.59;5059453;28;19947;-69
2023/09/04 08:22:53;;;;;;;;;;;;;;;25.39;45.37;102860.78;5051217;28;20596;-71
2023/09/04 08:25:19;;;;;;;;;;;;;;;25.21;45.38;102829.78;5058117;28;19984;-71
2023/09/04 08:27:44;;;;;;;;;;;;;;;25.42;45.00;102865.75;5058985;28;19994;-71
2023/09/04 08:30:10;;;;;;;;;;;;;;;25.45;45.04;102865.44;5059353;28;20396;-71
2023/09/04 08:32:35;;;;;;;;;;;;;;;25.44;45.35;102869.09;5055159;28;19974;-68
2023/09/04 08:35:01;;;;;;;;;;;;;;;25.46;45.06;102859.09;5053708;28;19977;-71
2023/09/04 08:37:26;;;;;;;;;;;;;;;25.45;45.16;102858.25;5058800;28;19970;-71
2023/09/04 08:39:52;;;;;;;;;;;;;;;25.48;45.31;102862.41;5060559;28;19955;-71
2023/09/04 08:42:17;;;;;;;;;;;;;;;25.48;45.27;102857.91;5058572;28;19957;-71
2023/09/04 08:44:43;;;;;;;;;;;;;;;25.49;45.39;102858.75;5055253;28;19945;-69
2023/09/04 08:47:09;;;;;;;;;;;;;;;25.51;45.15;102854.09;5055525;28;19937;-69
2023/09/04 08:49:36;;;;;;;;;;;;;;;25.53;45.33;102852.94;5052041;28;20014;-69
2023/09/04 08:52:01;;;;;;;;;;;;;;;25.53;45.49;102865.44;5055697;28;19971;-70
2023/09/04 08:54:28;;;;;;;;;;;;;;;25.53;45.18;102854.75;5054407;28;19997;-71
2023/09/04 08:56:53;;;;;;;;;;;;;;;25.55;45.15;102860.75;5055950;28;19950;-71
2023/09/04 08:59:19;;;;;;;;;;;;;;;25.55;45.38;102855.41;5052209;28;19953;-71
2023/09/04 09:01:44;;;;;;;;;;;;;;;25.54;45.21;102857.25;5055576;28;20032;-70
2023/09/04 09:04:10;;;;;;;;;;;;;;;25.57;45.29;102851.56;5057365;28;19951;-70
2023/09/04 09:06:36;;;;;;;;;;;;;;;25.60;45.29;102845.06;5058394;28;19946;-71
2023/09/04 09:09:02;;;;;;;;;;;;;;;25.60;45.05;102842.41;5055843;28;19954;-71
2023/09/04 09:11:27;;;;;;;;;;;;;;;25.59;45.29;102841.56;5056275;28;19944;-72
2023/09/04 09:13:53;;;;;;;;;;;;;;;25.60;45.06;102840.56;5058288;28;20020;-72
2023/09/04 09:16:21;;;;;;;;;;;;;;;25.61;45.25;102842.22;5055660;28;20012;-72
2023/09/04 09:18:48;;;;;;;;;;;;;;;25.65;45.24;102834.72;5053384;28;19952;-72
2023/09/04 09:21:19;;;;;;;;;;;;;;;25.65;44.92;102831.22;5055285;28;19966;-71
2023/09/04 09:23:45;;;;;;;;;;;;;;;25.63;45.18;102831.38;5058744;28;20286;-72
2023/09/04 09:26:10;;;;;;;;;;;;;;;25.64;45.10;102830.38;5057333;28;20039;-71
2023/09/04 09:28:36;;;;;;;;;;;;;;;25.64;44.98;102829.53;5057268;28;20120;-71
2023/09/04 09:31:01;;;;;;;;;;;;;;;25.66;44.94;102824.88;5055658;28;19952;-71
2023/09/04 09:33:27;;;;;;;;;;;;;;;25.64;45.04;102817.03;5060166;28;19950;-71
2023/09/04 09:35:54;;;;;;;;;;;;;;;25.66;44.91;102820.38;5058590;28;19943;-70
2023/09/04 09:38:20;;;;;;;;;;;;;;;25.67;44.83;102819.34;5054410;28;20405;-71
2023/09/04 09:40:46;;;;;;;;;;;;;;;25.68;45.15;102826.41;5053806;28;20017;-71
2023/09/04 09:43:13;;;;;;;;;;;;;;;25.69;44.87;102820.06;5056395;28;20263;-71
2023/09/04 09:45:38;;;;;;;;;;;;;;;25.68;45.18;102821.09;5061845;28;20029;-70
2023/09/04 09:48:04;;;;;;;;;;;;;;;25.70;44.96;102823.56;5059398;28;19987;-71
2023/09/04 09:50:30;;;;;;;;;;;;;;;25.55;45.23;102794.91;5054562;28;20041;-71
2023/09/04 09:52:56;;;;;;;;;;;;;;;25.70;44.90;102813.75;5054963;28;19966;-70
2023/09/04 09:55:25;;;;;;;;;;;;;;;25.69;45.25;102812.06;5058688;28;19944;-71
2023/09/04 09:57:52;;;;;;;;;;;;;;;25.71;44.85;102819.91;5055227;28;19943;-71
2023/09/04 10:00:18;;;;;;;;;;;;;;;25.70;44.86;102811.06;5060621;28;20317;-70
2023/09/04 10:02:43;;;;;;;;;;;;;;;25.70;44.88;102816.41;5057532;28;19947;-71
2023/09/04 10:05:09;;;;;;;;;;;;;;;25.69;45.28;102812.06;5053850;28;19982;-71
2023/09/04 10:07:37;;;;;;;;;;;;;;;25.70;45.25;102815.56;5067436;28;19977;-71
2023/09/04 10:10:05;;;;;;;;;;;;;;;25.73;45.08;102807.22;5060204;28;19943;-70
2023/09/04 10:12:35;;;;;;;;;;;;;;;25.73;44.97;102807.22;5058701;28;20305;-71
2023/09/04 10:15:01;;;;;;;;;;;;;;;25.73;44.98;102809.88;5055710;28;19973;-70
2023/09/04 10:17:36;;;;;;;;;;;;;;;25.70;45.06;102803.06;5053647;28;20593;-71
2023/09/04 10:20:02;;;;;;;;;;;;;;;25.72;45.19;102806.38;5062060;28;19939;-70
2023/09/04 10:22:32;;;;;;;;;;;;;;;25.74;45.25;102798.22;5057222;28;19956;-71
2023/09/04 10:25:04;;;;;;;;;;;;;;;25.79;45.06;102798.53;5063106;28;20032;-71
2023/09/04 10:27:31;;;;;;;;;;;;;;;25.77;45.03;102796.03;5063111;28;20009;-71
2023/09/04 10:30:02;;;;;;;;;;;;;;;25.58;44.92;102759.03;5060361;28;19956;-72
2023/09/04 10:32:27;;;;;;;;;;;;;;;25.78;44.96;102796.84;5053234;28;19947;-71
2023/09/04 10:34:53;;;;;;;;;;;;;;;25.78;45.01;102795.03;5057727;28;19997;-71
2023/09/04 10:37:18;;;;;;;;;;;;;;;25.79;44.70;102787.84;5059382;28;20406;-71
2023/09/04 10:39:44;;;;;;;;;;;;;;;25.61;44.95;102761.34;5057906;28;22506;-71
2023/09/04 10:42:11;;;;;;;;;;;;;;;25.81;44.63;102792.00;5057760;28;19967;-72
2023/09/04 10:44:43;;;;;;;;;;;;;;;25.79;44.92;102787.84;5061761;28;20022;-71
2023/09/04 10:47:08;;;;;;;;;;;;;;;25.78;44.95;102789.69;5058206;28;19941;-71
2023/09/04 10:49:34;;;;;;;;;;;;;;;25.81;44.92;102784.00;5056138;28;19975;-71
2023/09/04 10:51:59;;;;;;;;;;;;;;;25.78;44.99;102776.34;5054332;28;19979;-71
2023/09/04 10:54:25;;;;;;;;;;;;;;;25.80;44.95;102773.50;5053538;28;20046;-71
2023/09/04 10:56:54;;;;;;;;;;;;;;;25.78;44.71;102768.34;5053518;28;20029;-71
2023/09/04 10:59:19;;;;;;;;;;;;;;;25.79;44.94;102767.31;5055648;28;19951;-71
2023/09/04 11:01:45;;;;;;;;;;;;;;;25.80;44.71;102768.16;5055713;28;19958;-71
2023/09/04 11:04:10;;;;;;;;;;;;;;;25.80;44.70;102762.81;5056582;28;19955;-71
2023/09/04 11:06:40;;;;;;;;;;;;;;;25.81;44.75;102751.13;5052956;28;19957;-71
2023/09/04 11:09:05;;;;;;;;;;;;;;;25.81;44.86;102761.81;5059570;28;20429;-71
2023/09/04 11:11:31;;;;;;;;;;;;;;;25.82;44.91;102753.63;5090755;27;19943;-72
2023/09/04 11:14:06;;;;;;;;;;;;;;;25.83;44.71;102741.94;5057488;28;20300;-71
2023/09/04 11:16:48;;;;;;;;;;;;;;;25.83;44.92;102744.63;5060347;28;20032;-71
2023/09/04 11:19:15;;;;;;;;;;;;;;;25.84;45.08;102729.44;5058251;28;19944;-71
2023/09/04 11:21:42;;;;;;;;;;;;;;;25.81;44.69;102741.28;5060529;28;19956;-71
2023/09/04 11:24:08;;;;;;;;;;;;;;;25.82;44.67;102737.63;5056459;28;20072;-71
2023/09/04 11:26:33;;;;;;;;;;;;;;;25.84;44.85;102726.75;5063339;28;19945;-71
2023/09/04 11:28:59;;;;;;;;;;;;;;;25.86;44.93;102722.13;5060030;28;20058;-71
2023/09/04 11:31:26;;;;;;;;;;;;;;;25.84;44.66;102721.44;5058846;28;20410;-71
2023/09/04 11:33:52;;;;;;;;;;;;;;;25.86;44.72;102720.28;5057598;28;19947;-69
2023/09/04 11:36:17;;;;;;;;;;;;;;;25.84;44.89;102726.75;5063033;28;19947;-72
2023/09/04 11:38:43;;;;;;;;;;;;;;;25.87;44.93;102723.78;5060790;28;20309;-72
2023/09/04 11:41:18;;;;;;;;;;;;;;;25.88;44.87;102728.94;5062870;28;19965;-72
2023/09/04 11:43:43;;;;;;;;;;;;;;;25.86;44.67;102719.44;5058326;28;19945;-72
2023/09/04 11:46:10;;;;;;;;;;;;;;;25.85;44.66;102715.94;5065410;28;20006;-72
2023/09/04 11:48:35;;;;;;;;;;;;;;;25.86;44.97;102719.44;5060494;28;19951;-72
2023/09/04 11:51:01;;;;;;;;;;;;;;;25.85;44.89;102726.63;5061136;28;19972;-72
2023/09/04 11:53:27;;;;;;;;;;;;;;;25.84;44.67;102711.59;5061658;28;19944;-72
2023/09/04 11:55:53;;;;;;;;;;;;;;;25.86;45.04;102706.09;5064854;28;20067;-72
2023/09/04 11:58:18;;;;;;;;;;;;;;;25.85;44.98;102707.94;5061785;28;19996;-72
2023/09/04 12:00:44;;;;;;;;;;;;;;;25.84;44.95;102711.59;5063995;28;20029;-72
2023/09/04 12:03:10;;;;;;;;;;;;;;;25.85;44.89;102707.94;5062128;28;20003;-72
2023/09/04 12:05:35;;;;;;;;;;;;;;;25.87;44.60;102708.59;5058032;28;20136;-72
2023/09/04 12:08:04;;;;;;;;;;;;;;;25.87;45.03;102702.41;5058627;28;19941;-72
2023/09/04 12:10:32;;;;;;;;;;;;;;;25.86;45.04;102706.94;5055659;28;19948;-72
2023/09/04 12:12:57;;;;;;;;;;;;;;;25.87;44.67;102700.59;5059040;28;19947;-72
2023/09/04 12:15:33;;;;;;;;;;;;;;;25.73;44.87;102676.47;5054591;28;21504;-72
2023/09/04 12:18:00;;;;;;;;;;;;;;;25.89;44.74;102695.06;5059896;28;20279;-72
2023/09/04 12:20:25;;;;;;;;;;;;;;;25.91;44.88;102687.72;5056585;28;19945;-72
2023/09/04 12:22:55;;;;;;;;;;;;;;;25.71;44.65;102665.16;5054002;28;19958;-71
2023/09/04 12:25:22;;;;;;;;;;;;;;;25.86;44.59;102682.06;5059249;28;20358;-72
2023/09/04 12:27:48;;;;;;;;;;;;;;;25.88;44.63;102685.41;5062178;28;19997;-72
2023/09/04 12:30:13;;;;;;;;;;;;;;;25.90;44.67;102681.53;5057799;28;19955;-72